Ahuas Airport

Jump to: basic info | weather | comments

Related pages: nearby airports | nearby navaids | notams | map

Basic information (top)

Codes: AHS MHAH
Location: lon 15.472200, lat -84.352203, elev 98 ft / 30 m msl
Status: small_airport

Weather (top)

Current conditions for Puerto Lempira Airport 35nm (66km) ESE (rec'd 2014/09/21 00:00Z):

MHPL 210000Z 12008KT 9999 SCT026CB BKN250 28/24 Q1014 CB SW TCU SW W / HZ

Airport forecast for Tocoa Airport 96nm (177km) W (rec'd 2011/03/13 06:00Z):

TAF MHTO 130425Z 1306/1406 09012KT 9999 SCT018 SCT080 TX29/1319Z TN24/1312Z 
      BECMG 1313/1315 SCT020TCU

Latest comments (top)

No comments yet for Ahuas Airport

More... (top)

See also NOTAMs and nearby airports and navaids, or visit the Ahuas Airport page at the main OurAirports website..